METAR AND TAF INFORMATION
METAR FOR EGHI
ADDS - METARS form results

(2333 UTC 04 August 2021)
Data provider http://aviationweather.gov/metar/data/
 
Forecast for: EGHI (SOUTHAMPTON WX C, GB)
Text: TAF EGHI 041702Z 0418/0503 22007KT 9999 FEW030
Forecast period: 1800 UTC 04 August 2021 to 0300 UTC 05 August 2021
Forecast type: FROM: standard forecast or significant change
Winds: from the SW (220 degrees) at 8 MPH (7 knots; 3.6 m/s)
Visibility: 6 or more miles (10+ km)
Ceiling: at least 12,000 feet AGL
Clouds: few clouds at 3000 feet AGL
Weather: no significant weather forecast for this period

 AIRPORT MAP

 RUNWAY INFORMATION
Runway 02 Runway length 5653 ft Runway width 121 ft
Runway elevation 31 ft Runway displaced threshold 240 ft Runway heading 19
Runway 20 Runway length 5653 ft Runway width 121 ft
Runway elevation 44 ft Runway displaced threshold 145 ft Runway heading 199

 AIRPORT FREQUENCIES
Type APP Name APP Frequency 128.85 MHZ
Type ATIS Name ATIS Frequency 113.35 MHZ
Type GND Name GND Frequency 121.775 MHZ
Type OPS Name OPS Frequency 130.65 MHZ
Type TWR Name TWR Frequency 118.2 MHZ

 AIRPORT NEAR NAVIGATION AIDS
Type NDB Name Southampton Frequency 392 KHZ
Type VOR-DME Name Southampton Frequency 113350 KHZ





Powered by Virtual Airlines Manager

Maps by Rafael Santos